AirNav   Pilot Hours Calculator
 
 466 users online  

3TA5 Blanco Landing Airport
Blanco, Texas, USA

GOING TO BLANCO?


FAA INFORMATION EFFECTIVE 05 NOVEMBER 2020

Location

FAA Identifier: 3TA5
Lat/Long: 30-07-20.8800N 098-22-29.2200W
30-07.348000N 098-22.487000W
30.1224667,-98.3747833
(estimated)
Elevation: 1460 ft. / 445 m (estimated)
Variation: 07E (1985)
From city: 3 miles NE of BLANCO, TX
Time zone: UTC -6 (UTC -5 during Daylight Saving Time)
Zip code: 78606

Airport Operations

Airport use: Private use. Permission required prior to landing
Activation date: 03/1981
Control tower: no
ARTCC: HOUSTON CENTER
FSS: SAN ANGELO FLIGHT SERVICE STATION
Attendance: UNATNDD
Wind indicator: yes
Segmented circle: no

Airport Communications

CTAF: 122.9

Nearby radio navigation aids

VOR radial/distance  VOR name  Freq  Var
STVr098/17.9STONEWALL VORTAC113.8008E
SATr001/29.1SAN ANTONIO VORTAC116.8008E
RNDr348/36.5RANDOLPH VORTAC112.3005E

Airport Services

Runway Information

Runway 1/19

Dimensions: 3450 x 27 ft. / 1052 x 8 m
Surface: asphalt
RUNWAY 1  RUNWAY 19
Traffic pattern: leftleft

Airport Ownership and Management from official FAA records

Ownership: Privately-owned
Owner: THE LANDING P.O.A.
3238 HWY 281 N
BLANCO, TX 78606
Phone (510) 910-3269
Manager: ROBERT GARCIA JR
3238 HWY 281 N
BLANCO, TX 78606
Phone (915) 525-7792
OTR (512) 461-5158

Airport Operational Statistics

Aircraft based on the field: 9
Single engine airplanes: 8
Helicopters: 1
    

Additional Remarks

FOR CD CTC HOUSTON ARTCC AT 281-230-5622.
RCMD OVER-FLY FLD TO INSURE RWY CLEAR OF WILDLIFE & MAINT CREWS AND TO CHECK WIND DRCTN FOR LNDG.
TALL TREES AT SOUTH AER TO INSURE PROPER CLNC.

Instrument Procedures

There are no published instrument procedures at 3TA5.

Some nearby airports with instrument procedures:

3R9 - Lakeway Airpark (24 nm NE)
T82 - Gillespie County Airport (29 nm W)
5C1 - Boerne Stage Field Airport (29 nm SW)
KHYI - San Marcos Regional Airport (30 nm SE)
KBAZ - New Braunfels Regional Airport (30 nm SE)
 
Loc | Ops | Rwys | IFR | FBO | Links
Com | Nav | Svcs | Stats | Notes
Area around 3TA5 (Blanco Landing Airport)
 
Road maps at: MapQuest Bing Google
 
Aerial photo
WARNING: Photo may not be current or correct
Aerial photo of 3TA5 (Blanco Landing Airport)
Photo taken 18-Jul-2017
looking south.

Do you have a better or more recent aerial photo of Blanco Landing Airport that you would like to share? If so, please send us your photo.

 
Sectional chart

 
Airport distance calculator
Flying to Blanco Landing Airport? Find the distance to fly.

From to 3TA5

Sunrise and sunset
Times for 30-Nov-2020
 Local
(UTC-6)
 Zulu
(UTC)
Morning civil twilight06:4712:47
Sunrise07:1313:13
Sunset17:3223:32
Evening civil twilight17:5823:58

Current date and time
Zulu (UTC)  30-Nov-2020 07:19:00
Local (UTC-6)  30-Nov-2020 01:19:00
 
METAR
KDZB 
24nm N 
300659Z AUTO 34005KT 10SM CLR 08/01 A3038 RMK AO2
KT82 
29nm W 
300655Z AUTO 36010G16KT 10SM CLR 07/02 A3037 RMK AO2 T00670023
K5C1 
29nm SW 
300655Z AUTO 36014G22KT 10SM CLR 07/03 A3036 RMK AO1
KBAZ 
30nm SE 
300651Z AUTO 34010KT 10SM CLR 09/04 A3033 RMK AO2 SLP269 T00940044
KHYI 
30nm SE 
300656Z AUTO 35015G22KT 10SM CLR 09/05 A3035 RMK AO2 SLP272 T00890050
KRYW 
31nm NE 
300655Z AUTO 34008G15KT 340V040 10SM CLR 07/02 A3035 RMK AO2 T00680015
KSAT 
36nm S 
300651Z 33008KT 10SM CLR 08/04 A3035 RMK AO2 SLP268 T00830039
KAUS 
36nm E 
300653Z 35016G23KT 10SM CLR 10/03 A3033 RMK AO2 SLP270 T01000033 $
KATT 
37nm E 
300651Z AUTO VRB06KT 10SM CLR 09/03 A3035 RMK AO2 SLP278 T00940033
KRND 
37nm S 
300656Z AUTO 32011KT 10SM CLR 08/04 A3033 RMK AO2 SLP271 T00760044 $
TAF
KSAT 
36nm S 
300520Z 3006/0112 34005KT P6SM SKC FM301100 36012G22KT P6SM SKC FM302200 36007KT P6SM SKC
KAUS 
36nm E 
300520Z 3006/0112 34011KT P6SM SCT250 FM301000 36012G22KT P6SM SKC FM302200 36008KT P6SM SKC
NOTAMs
Click for the latest NOTAMs
NOTAMs are issued by the DoD/FAA and will open in a separate window not controlled by AirNav.

 

 
 

Would you like to see your business listed on this page?

 If your business provides an interesting product or service to pilots, flight crews, aircraft, or users of the Blanco Landing Airport, you should consider listing it here.  To start the listing process, click on the button below
 
Add a business
 

Other Pages about Blanco Landing Airport

Update a link
 
Copyright © AirNav, LLC. All rights reserved. Privacy Policy  Contact